Time;durP1;ratioP1;P1;durP2;ratioP2;P2;SDS_P1;SDS_P2;PMS_P1;PMS_P2;Temp;Humidity;BMP_temperature;BMP_pressure;BME280_temperature;BME280_humidity;BME280_pressure;Samples;Min_cycle;Max_cycle;Signal;HPM_P1;HPM_P2
2022/11/24 00:01:56;;;;;;;25.77;16.60;;;4.60;44.10;;;;;;5035076;28;20413;-41
2022/11/24 00:04:22;;;;;;;34.77;17.57;;;4.60;44.10;;;;;;5034994;28;20272;-41
2022/11/24 00:06:48;;;;;;;27.80;15.53;;;4.60;44.10;;;;;;5036025;28;20166;-41
2022/11/24 00:09:14;;;;;;;38.40;17.00;;;4.60;43.80;;;;;;5034788;28;20198;-41
2022/11/24 00:11:39;;;;;;;21.43;14.50;;;4.60;43.80;;;;;;5035387;28;20291;-39
2022/11/24 00:14:06;;;;;;;27.30;15.57;;;4.60;43.60;;;;;;5035399;28;20189;-43
2022/11/24 00:16:34;;;;;;;24.27;15.68;;;4.60;43.60;;;;;;5034553;28;20439;-41
2022/11/24 00:19:03;;;;;;;31.25;17.17;;;4.50;43.70;;;;;;5035360;28;20244;-44
2022/11/24 00:21:29;;;;;;;29.55;17.40;;;4.50;43.60;;;;;;5035816;28;20641;-40
2022/11/24 00:23:56;;;;;;;29.95;17.23;;;4.50;43.60;;;;;;5035178;28;20220;-42
2022/11/24 00:26:24;;;;;;;27.15;14.95;;;4.50;43.70;;;;;;5034469;28;20507;-42
2022/11/24 00:28:52;;;;;;;29.48;16.48;;;4.40;43.50;;;;;;5034652;28;20682;-43
2022/11/24 00:31:18;;;;;;;31.08;16.98;;;4.40;43.70;;;;;;5033995;28;20542;-41
2022/11/24 00:33:46;;;;;;;24.08;14.18;;;4.30;43.70;;;;;;5035439;28;20179;-43
2022/11/24 00:36:13;;;;;;;29.20;16.45;;;4.30;43.80;;;;;;5033938;28;20181;-40
2022/11/24 00:38:38;;;;;;;27.02;16.75;;;4.30;43.80;;;;;;5034756;28;20202;-43
2022/11/24 00:41:04;;;;;;;29.03;17.37;;;4.30;43.80;;;;;;5035414;28;20181;-39
2022/11/24 00:43:30;;;;;;;26.75;16.20;;;4.30;43.80;;;;;;5035461;28;20575;-42
2022/11/24 00:45:56;;;;;;;32.73;16.30;;;4.30;43.70;;;;;;5036110;28;20194;-42
2022/11/24 00:48:22;;;;;;;29.00;15.60;;;4.30;43.60;;;;;;5034832;28;20824;-40
2022/11/24 00:50:58;;;;;;;29.00;17.10;;;4.30;43.80;;;;;;5035840;28;20201;-40
2022/11/24 00:53:24;;;;;;;32.30;18.40;;;4.20;43.60;;;;;;5035327;28;20174;-41
2022/11/24 00:55:51;;;;;;;26.45;15.75;;;4.20;43.90;;;;;;5035778;28;20176;-42
2022/11/24 00:58:17;;;;;;;24.60;15.55;;;4.20;43.90;;;;;;5035038;28;20225;-40
2022/11/24 01:00:43;;;;;;;24.95;14.10;;;4.20;43.80;;;;;;5035400;28;20186;-38
2022/11/24 01:03:09;;;;;;;31.03;17.37;;;4.20;43.80;;;;;;5035295;28;20260;-43
2022/11/24 01:05:38;;;;;;;24.83;15.43;;;4.10;43.90;;;;;;5034211;28;20177;-39
2022/11/24 01:08:05;;;;;;;31.35;16.27;;;4.10;43.80;;;;;;5034391;28;20424;-41
2022/11/24 01:10:30;;;;;;;38.17;15.90;;;4.10;43.80;;;;;;5034849;28;20178;-40
2022/11/24 01:12:56;;;;;;;31.50;18.53;;;4.10;43.70;;;;;;5035238;28;20185;-42
2022/11/24 01:15:22;;;;;;;30.70;16.23;;;4.00;43.60;;;;;;5034776;28;20636;-40
2022/11/24 01:17:48;;;;;;;29.23;16.37;;;3.90;43.70;;;;;;5033667;28;20936;-40
2022/11/24 01:20:13;;;;;;;24.77;15.90;;;4.00;43.80;;;;;;5034285;28;20178;-41
2022/11/24 01:22:41;;;;;;;32.20;16.67;;;4.00;43.80;;;;;;5034650;28;20178;-40
2022/11/24 01:25:08;;;;;;;26.80;14.13;;;4.00;43.80;;;;;;5033638;28;20421;-40
2022/11/24 01:27:34;;;;;;;32.58;15.85;;;4.00;43.70;;;;;;5033615;28;20563;-40
2022/11/24 01:30:00;;;;;;;34.30;15.23;;;4.00;43.40;;;;;;5034538;28;20281;-43
2022/11/24 01:32:26;;;;;;;24.03;15.43;;;3.90;43.40;;;;;;5034426;28;20254;-40
2022/11/24 01:34:51;;;;;;;28.40;14.20;;;3.90;43.70;;;;;;5034510;28;20177;-42
2022/11/24 01:37:17;;;;;;;31.13;16.37;;;3.90;44.50;;;;;;5033470;28;20416;-43
2022/11/24 01:39:43;;;;;;;32.47;17.40;;;3.90;43.90;;;;;;5034120;28;20573;-42
2022/11/24 01:42:09;;;;;;;26.73;14.83;;;3.90;43.80;;;;;;5033005;28;20175;-41
2022/11/24 01:44:35;;;;;;;22.40;16.08;;;3.90;43.60;;;;;;5033749;28;20247;-41
2022/11/24 01:47:16;;;;;;;31.77;15.73;;;3.90;43.20;;;;;;5033234;28;20186;-39
2022/11/24 01:49:50;;;;;;;29.55;15.57;;;3.80;43.30;;;;;;5034202;28;20280;-42
2022/11/24 01:52:41;;;;;;;23.70;14.55;;;3.80;43.60;;;;;;5034320;28;20181;-39
2022/11/24 01:55:11;;;;;;;30.42;16.80;;;3.70;43.50;;;;;;5030896;28;20182;-40
2022/11/24 01:57:45;;;;;;;24.48;15.55;;;3.70;43.40;;;;;;5032854;28;20335;-40
2022/11/24 02:00:13;;;;;;;23.65;14.05;;;3.70;43.60;;;;;;5033367;28;20843;-40
2022/11/24 02:02:40;;;;;;;27.13;17.45;;;3.70;43.60;;;;;;5034066;28;20208;-42
2022/11/24 02:05:19;;;;;;;22.70;14.32;;;3.60;43.30;;;;;;5033499;28;20158;-38
2022/11/24 02:07:46;;;;;;;23.27;14.80;;;3.60;43.60;;;;;;5032492;28;20539;-38
2022/11/24 02:10:14;;;;;;;31.00;15.50;;;3.50;43.40;;;;;;5033850;28;20166;-40
2022/11/24 02:12:46;;;;;;;33.33;16.90;;;3.50;43.80;;;;;;5033954;28;20180;-40
2022/11/24 02:15:15;;;;;;;25.02;14.57;;;3.50;43.80;;;;;;5033780;28;20155;-39
2022/11/24 02:17:41;;;;;;;21.02;12.32;;;3.50;43.80;;;;;;5033414;28;20236;-42
2022/11/24 02:20:09;;;;;;;24.40;14.80;;;3.50;43.90;;;;;;5033822;28;20853;-43
2022/11/24 02:23:04;;;;;;;32.00;17.70;;;3.50;43.80;;;;;;5033242;28;20413;-40
2022/11/24 02:26:01;;;;;;;26.80;15.93;;;3.50;43.50;;;;;;5033187;28;20181;-39
2022/11/24 02:28:29;;;;;;;29.17;14.45;;;3.50;43.70;;;;;;5033633;28;20218;-40
2022/11/24 02:30:56;;;;;;;28.92;15.93;;;3.50;43.70;;;;;;5033107;28;20362;-42
2022/11/24 02:33:24;;;;;;;25.38;15.30;;;3.50;43.60;;;;;;5053354;23;20221;-40
2022/11/24 02:35:50;;;;;;;26.10;15.15;;;3.50;43.60;;;;;;5053064;28;20204;-40
2022/11/24 02:38:16;;;;;;;27.05;14.77;;;3.50;43.50;;;;;;5052751;28;20177;-39
2022/11/24 02:40:47;;;;;;;26.20;15.30;;;3.50;43.70;;;;;;5052478;28;20224;-40
2022/11/24 02:43:18;;;;;;;30.10;14.82;;;3.60;43.60;;;;;;5035398;28;20482;-41
2022/11/24 02:45:44;;;;;;;23.23;14.57;;;3.60;43.50;;;;;;5052143;28;20207;-41
2022/11/24 02:48:09;;;;;;;23.90;14.47;;;3.60;43.40;;;;;;5053108;28;20165;-39
2022/11/24 02:50:35;;;;;;;21.80;13.10;;;3.50;43.10;;;;;;5052640;28;20816;-42
2022/11/24 02:53:01;;;;;;;31.30;15.82;;;3.50;43.40;;;;;;5052809;28;20188;-40
2022/11/24 02:55:28;;;;;;;25.97;14.73;;;3.50;43.60;;;;;;5056272;28;20218;-42
2022/11/24 02:57:54;;;;;;;37.03;16.63;;;3.50;43.50;;;;;;5056454;28;20252;-43
2022/11/24 03:00:19;;;;;;;25.70;14.37;;;3.50;43.60;;;;;;5056887;28;20824;-42
2022/11/24 03:02:45;;;;;;;23.67;13.83;;;3.50;43.50;;;;;;5056454;28;20208;-42
2022/11/24 03:05:12;;;;;;;27.08;14.48;;;3.60;43.60;;;;;;5056475;28;20208;-40
2022/11/24 03:07:38;;;;;;;25.25;14.38;;;3.60;43.60;;;;;;5055724;28;20609;-41
2022/11/24 03:10:04;;;;;;;26.13;13.37;;;3.50;43.40;;;;;;5056681;28;20215;-43
2022/11/24 03:12:29;;;;;;;25.55;14.40;;;3.50;43.60;;;;;;5056387;28;20197;-40
2022/11/24 03:14:55;;;;;;;22.00;14.17;;;3.40;43.90;;;;;;5056311;28;20248;-43
2022/11/24 03:17:21;;;;;;;26.53;12.00;;;3.50;44.00;;;;;;5056090;28;20177;-41
2022/11/24 03:19:46;;;;;;;27.00;14.67;;;3.50;43.90;;;;;;5056107;28;20181;-41
2022/11/24 03:22:13;;;;;;;28.03;12.13;;;3.50;43.90;;;;;;5056075;28;20242;-43
2022/11/24 03:24:38;;;;;;;22.50;12.48;;;3.50;43.60;;;;;;5055958;28;20276;-41
2022/11/24 03:27:04;;;;;;;21.77;12.80;;;3.40;43.40;;;;;;5056134;28;20260;-40
2022/11/24 03:29:30;;;;;;;25.33;13.20;;;3.40;43.60;;;;;;5056163;28;20173;-40
2022/11/24 03:31:56;;;;;;;20.30;11.80;;;3.40;43.40;;;;;;5056354;28;20534;-42
2022/11/24 03:34:22;;;;;;;21.02;12.02;;;3.40;43.70;;;;;;5055472;28;20786;-43
2022/11/24 03:36:47;;;;;;;19.90;12.33;;;3.40;43.70;;;;;;5055697;28;20181;-40
2022/11/24 03:39:13;;;;;;;21.77;13.87;;;3.30;43.60;;;;;;5055949;28;20597;-39
2022/11/24 03:41:40;;;;;;;20.47;13.27;;;3.30;43.70;;;;;;5055906;28;20170;-41
2022/11/24 03:44:05;;;;;;;25.98;13.23;;;3.30;43.60;;;;;;5055766;28;20201;-40
2022/11/24 03:46:31;;;;;;;20.57;12.60;;;3.30;43.60;;;;;;5055517;28;20191;-40
2022/11/24 03:48:57;;;;;;;30.90;15.07;;;3.30;43.60;;;;;;5055927;28;20407;-41
2022/11/24 03:51:22;;;;;;;26.03;14.97;;;3.30;43.60;;;;;;5055843;28;20196;-39
2022/11/24 03:53:48;;;;;;;26.37;12.43;;;3.30;43.40;;;;;;5055529;28;20719;-40
2022/11/24 03:56:14;;;;;;;22.13;12.90;;;3.30;43.30;;;;;;5055305;28;20215;-40
2022/11/24 03:58:40;;;;;;;22.03;13.63;;;3.20;43.30;;;;;;5055536;28;20921;-40
2022/11/24 04:01:05;;;;;;;23.90;12.73;;;3.20;43.50;;;;;;5055882;28;20185;-40
2022/11/24 04:03:31;;;;;;;27.03;13.20;;;3.20;43.40;;;;;;5055672;28;20201;-40
2022/11/24 04:05:57;;;;;;;25.63;14.03;;;3.20;43.50;;;;;;5054051;28;20298;-39
2022/11/24 04:08:23;;;;;;;19.33;11.37;;;3.20;43.30;;;;;;5055095;28;20260;-39
2022/11/24 04:10:50;;;;;;;27.17;11.70;;;3.20;43.30;;;;;;5055328;28;20207;-43
2022/11/24 04:13:18;;;;;;;19.52;13.02;;;3.20;43.40;;;;;;5055176;28;20220;-39
2022/11/24 04:15:44;;;;;;;25.27;11.95;;;3.20;43.40;;;;;;5054393;28;20177;-40
2022/11/24 04:18:12;;;;;;;24.15;12.50;;;3.20;43.40;;;;;;5054989;28;20634;-41
2022/11/24 04:20:38;;;;;;;29.38;13.60;;;3.10;43.20;;;;;;5055004;28;20244;-41
2022/11/24 04:23:04;;;;;;;29.17;12.70;;;3.20;43.20;;;;;;5055005;28;20251;-40
2022/11/24 04:25:30;;;;;;;21.40;14.38;;;3.10;43.30;;;;;;5054652;28;20314;-42
2022/11/24 04:27:56;;;;;;;24.23;15.33;;;3.10;43.30;;;;;;5055384;28;20215;-40
2022/11/24 04:30:24;;;;;;;19.48;12.30;;;3.10;43.40;;;;;;5054746;28;20174;-40
2022/11/24 04:32:50;;;;;;;23.73;12.85;;;3.10;43.50;;;;;;5054698;28;20790;-40
2022/11/24 04:35:16;;;;;;;24.23;12.70;;;3.20;43.50;;;;;;5054955;28;20260;-40
2022/11/24 04:37:42;;;;;;;30.52;12.57;;;3.10;43.30;;;;;;5054832;28;20189;-42
2022/11/24 04:40:09;;;;;;;24.77;12.70;;;3.10;43.60;;;;;;5055381;28;20543;-43
2022/11/24 04:42:35;;;;;;;21.52;12.90;;;3.10;43.50;;;;;;5054796;28;20188;-40
2022/11/24 04:45:01;;;;;;;28.63;11.35;;;3.10;43.80;;;;;;5054983;28;20183;-43
2022/11/24 04:47:27;;;;;;;23.90;13.30;;;3.10;43.70;;;;;;5054493;28;20536;-43
2022/11/24 04:49:53;;;;;;;25.93;14.07;;;3.20;43.60;;;;;;5054490;28;20411;-43
2022/11/24 04:52:21;;;;;;;20.38;12.20;;;3.20;43.70;;;;;;5054885;28;20264;-42
2022/11/24 04:54:48;;;;;;;17.77;10.77;;;3.20;43.60;;;;;;5054999;28;20176;-40
2022/11/24 04:57:27;;;;;;;29.40;13.10;;;3.30;43.80;;;;;;5054390;28;20173;-42
2022/11/24 04:59:53;;;;;;;20.92;12.27;;;3.30;44.00;;;;;;5053676;28;20181;-40
2022/11/24 05:02:20;;;;;;;22.02;13.98;;;3.30;44.10;;;;;;5054565;28;20658;-40
2022/11/24 05:04:47;;;;;;;28.75;12.55;;;3.30;44.10;;;;;;5055101;28;20561;-40
2022/11/24 05:07:14;;;;;;;22.65;13.35;;;3.40;44.10;;;;;;5054349;28;20310;-42
2022/11/24 05:12:31;;;;;;;26.20;12.75;;;3.40;44.10;;;;;;5054043;28;20204;-41
2022/11/24 05:14:58;;;;;;;19.10;11.00;;;3.40;44.10;;;;;;5054093;28;20188;-39
2022/11/24 05:17:27;;;;;;;25.45;11.95;;;3.40;44.20;;;;;;5053851;28;20176;-40
2022/11/24 05:19:52;;;;;;;26.15;12.18;;;3.40;44.50;;;;;;5054570;28;20174;-40
2022/11/24 05:22:18;;;;;;;25.63;13.10;;;3.40;44.90;;;;;;5053744;28;20245;-42
2022/11/24 05:24:44;;;;;;;21.67;11.20;;;3.40;44.90;;;;;;5053951;28;20212;-40
2022/11/24 05:27:10;;;;;;;27.00;12.23;;;3.40;46.00;;;;;;5053687;28;20261;-40
2022/11/24 05:29:36;;;;;;;18.95;10.57;;;3.40;45.30;;;;;;5054692;28;20620;-39
2022/11/24 05:32:02;;;;;;;25.30;12.03;;;3.50;45.40;;;;;;5053347;28;20288;-41
2022/11/24 05:34:32;;;;;;;22.17;12.57;;;3.60;45.30;;;;;;5053910;28;20181;-39
2022/11/24 05:37:02;;;;;;;24.85;13.45;;;3.70;45.40;;;;;;5052658;28;20416;-42
2022/11/24 05:39:37;;;;;;;26.90;14.05;;;3.70;45.40;;;;;;5053635;28;20525;-42
2022/11/24 05:42:39;;;;;;;22.17;13.68;;;3.70;46.00;;;;;;5053494;28;20192;-42
2022/11/24 05:44:50;;;;;;;22.20;12.07;;;3.80;45.80;;;;;;5053711;28;20205;-39
2022/11/24 05:47:17;;;;;;;30.52;13.15;;;3.80;45.70;;;;;;5053143;28;20252;-42
2022/11/24 05:49:42;;;;;;;24.45;14.82;;;3.90;45.80;;;;;;5052890;28;20173;-39
2022/11/24 05:52:08;;;;;;;23.30;13.20;;;4.00;45.60;;;;;;5053396;28;20220;-43
2022/11/24 05:54:34;;;;;;;29.58;14.38;;;4.10;46.00;;;;;;5053130;28;20181;-43
2022/11/24 05:57:00;;;;;;;25.47;14.20;;;4.20;46.00;;;;;;5053545;28;20177;-42
2022/11/24 05:59:25;;;;;;;23.83;14.30;;;4.30;46.00;;;;;;5053252;28;20180;-40
2022/11/24 06:01:51;;;;;;;24.27;15.43;;;4.30;45.80;;;;;;5053305;28;20568;-42
2022/11/24 06:04:17;;;;;;;26.33;13.97;;;4.40;45.90;;;;;;5052971;28;20283;-40
2022/11/24 06:06:42;;;;;;;31.07;17.77;;;4.40;45.80;;;;;;5052656;28;20168;-42
2022/11/24 06:09:08;;;;;;;25.03;13.30;;;4.40;46.20;;;;;;5053112;28;20170;-41
2022/11/24 06:11:34;;;;;;;28.80;17.07;;;4.40;46.70;;;;;;5053142;28;20215;-42
2022/11/24 06:13:59;;;;;;;33.67;15.47;;;4.50;47.00;;;;;;5052646;28;20169;-41
2022/11/24 06:16:25;;;;;;;32.87;15.60;;;4.50;46.90;;;;;;5052905;28;20165;-40
2022/11/24 06:18:51;;;;;;;26.70;14.20;;;4.50;47.00;;;;;;5052102;28;20199;-40
2022/11/24 06:21:17;;;;;;;28.63;13.00;;;4.60;46.90;;;;;;5052678;28;20411;-42
2022/11/24 06:23:42;;;;;;;35.50;16.57;;;4.50;46.70;;;;;;5053174;28;20197;-42
2022/11/24 06:26:08;;;;;;;33.57;15.30;;;4.60;46.70;;;;;;5052843;28;20633;-40
2022/11/24 06:28:34;;;;;;;23.30;15.37;;;4.60;46.90;;;;;;5051679;28;20203;-41
2022/11/24 06:31:02;;;;;;;27.38;14.73;;;4.60;46.80;;;;;;5053084;28;20416;-42
2022/11/24 06:33:35;;;;;;;29.95;18.38;;;4.70;46.80;;;;;;5052127;28;20220;-42
2022/11/24 06:36:03;;;;;;;36.90;18.55;;;4.80;46.80;;;;;;5052957;28;20161;-40
2022/11/24 06:38:30;;;;;;;30.35;17.70;;;4.80;46.80;;;;;;5052393;28;20173;-40
2022/11/24 06:41:05;;;;;;;30.55;17.88;;;4.90;47.10;;;;;;5052245;28;20181;-43
2022/11/24 06:43:31;;;;;;;28.30;16.95;;;4.90;47.20;;;;;;5053326;28;20217;-40
2022/11/24 06:45:57;;;;;;;25.35;16.42;;;5.00;47.20;;;;;;5053694;28;20258;-42
2022/11/24 06:48:25;;;;;;;36.30;18.60;;;5.00;48.20;;;;;;5037137;28;20178;-40
2022/11/24 06:50:52;;;;;;;36.83;20.10;;;5.10;47.50;;;;;;5053675;28;20418;-40
2022/11/24 06:53:18;;;;;;;31.33;17.33;;;5.10;47.80;;;;;;5055029;28;20268;-40
2022/11/24 06:55:45;;;;;;;32.63;16.60;;;5.20;47.70;;;;;;5035114;28;20173;-40
2022/11/24 06:58:11;;;;;;;26.65;15.35;;;5.20;47.70;;;;;;5053449;28;20177;-41
2022/11/24 07:00:38;;;;;;;47.50;18.67;;;5.30;47.90;;;;;;5054110;28;20252;-40
2022/11/24 07:03:04;;;;;;;27.45;16.40;;;5.40;47.70;;;;;;5053884;28;20975;-41
2022/11/24 07:05:30;;;;;;;25.05;14.68;;;5.30;47.80;;;;;;5053562;28;20269;-41
2022/11/24 07:08:00;;;;;;;32.07;15.63;;;5.40;47.80;;;;;;5053379;28;20223;-39
2022/11/24 07:10:26;;;;;;;29.45;15.93;;;5.40;47.70;;;;;;5055009;28;20734;-39
2022/11/24 07:12:54;;;;;;;28.63;15.70;;;5.50;47.70;;;;;;5054531;28;20213;-40
2022/11/24 07:15:19;;;;;;;26.83;15.93;;;5.60;47.60;;;;;;5055279;28;20487;-42
2022/11/24 07:17:45;;;;;;;28.70;16.00;;;5.60;47.80;;;;;;5055490;28;20192;-42
2022/11/24 07:20:11;;;;;;;34.33;18.00;;;5.60;47.80;;;;;;5054729;28;20169;-41
2022/11/24 07:22:36;;;;;;;28.50;16.63;;;5.70;48.00;;;;;;5054894;28;20201;-42
2022/11/24 07:25:06;;;;;;;29.47;16.60;;;5.70;47.90;;;;;;5054290;28;20506;-40
2022/11/24 07:27:32;;;;;;;37.50;18.52;;;5.70;47.90;;;;;;5054802;28;20231;-40
2022/11/24 07:29:59;;;;;;;34.53;18.73;;;5.70;48.10;;;;;;5054119;28;20178;-40
2022/11/24 07:32:24;;;;;;;27.55;16.67;;;5.70;48.20;;;;;;5035940;28;20616;-40
2022/11/24 07:34:50;;;;;;;34.63;18.20;;;5.70;48.10;;;;;;5053536;28;20170;-40
2022/11/24 07:37:16;;;;;;;31.37;17.03;;;5.70;48.20;;;;;;5053514;28;20174;-40
2022/11/24 07:39:42;;;;;;;29.03;18.30;;;5.80;48.10;;;;;;5053058;28;20180;-40
2022/11/24 07:42:09;;;;;;;31.60;16.67;;;5.80;48.20;;;;;;5056566;28;20193;-40
2022/11/24 07:44:35;;;;;;;34.35;18.83;;;5.90;48.20;;;;;;5057709;28;20448;-40
2022/11/24 07:47:00;;;;;;;29.03;17.23;;;5.90;48.10;;;;;;5058312;28;20184;-39
2022/11/24 07:49:26;;;;;;;35.03;20.13;;;5.90;48.10;;;;;;5058172;28;20628;-39
2022/11/24 07:51:52;;;;;;;32.60;20.03;;;5.90;48.10;;;;;;5058795;28;20194;-41
2022/11/24 07:54:18;;;;;;;40.63;22.02;;;6.00;48.10;;;;;;5057663;28;20462;-43
2022/11/24 07:56:46;;;;;;;41.03;19.50;;;6.00;48.20;;;;;;5057737;28;20641;-42
2022/11/24 07:59:12;;;;;;;34.83;19.90;;;6.10;48.20;;;;;;5057432;28;20189;-41
2022/11/24 08:01:38;;;;;;;33.10;19.03;;;6.10;48.40;;;;;;5058061;28;20185;-40
2022/11/24 08:04:04;;;;;;;34.63;19.03;;;6.10;48.40;;;;;;5057167;28;20224;-39
2022/11/24 08:06:29;;;;;;;33.07;19.10;;;6.10;48.40;;;;;;5055941;28;20412;-40
2022/11/24 08:08:55;;;;;;;38.83;20.53;;;6.20;48.60;;;;;;5056904;28;20419;-40
2022/11/24 08:11:22;;;;;;;32.83;20.17;;;6.20;48.50;;;;;;5057121;28;20439;-40
2022/11/24 08:13:50;;;;;;;33.15;19.52;;;6.30;48.40;;;;;;5056582;28;20201;-40
2022/11/24 08:16:19;;;;;;;34.08;20.08;;;6.40;48.70;;;;;;5056983;28;20200;-40
2022/11/24 08:18:54;;;;;;;37.80;19.10;;;6.40;48.50;;;;;;5057775;28;20201;-40
2022/11/24 08:21:22;;;;;;;33.25;18.48;;;6.50;48.70;;;;;;5056704;28;20256;-40
2022/11/24 08:23:52;;;;;;;46.15;23.63;;;6.50;48.90;;;;;;5056646;28;20807;-40
2022/11/24 08:26:20;;;;;;;32.58;19.75;;;6.60;48.90;;;;;;5056252;28;20197;-40
2022/11/24 08:28:46;;;;;;;38.38;20.50;;;6.60;49.10;;;;;;5056398;28;20182;-40
2022/11/24 08:31:17;;;;;;;33.60;19.88;;;6.60;49.00;;;;;;5057148;28;20169;-40
2022/11/24 08:33:43;;;;;;;38.92;20.10;;;6.70;49.10;;;;;;5039424;28;20374;-40
2022/11/24 08:36:15;;;;;;;32.33;19.87;;;6.70;49.30;;;;;;5056821;28;20189;-40
2022/11/24 08:38:43;;;;;;;33.92;18.90;;;6.70;49.10;;;;;;5056888;28;20396;-40
2022/11/24 08:41:16;;;;;;;29.13;19.33;;;6.80;49.80;;;;;;5055772;28;20268;-40
2022/11/24 08:43:42;;;;;;;33.40;19.45;;;6.90;49.40;;;;;;5047824;23;20297;-42
2022/11/24 08:46:10;;;;;;;37.35;19.88;;;6.90;49.40;;;;;;5052175;28;20216;-40
2022/11/24 08:48:36;;;;;;;34.88;17.77;;;6.90;49.50;;;;;;5056143;28;20177;-43
2022/11/24 08:51:08;;;;;;;32.85;18.20;;;7.00;49.50;;;;;;5056594;28;20173;-39
2022/11/24 08:53:33;;;;;;;33.50;19.58;;;7.00;49.50;;;;;;5056203;28;20165;-43
2022/11/24 08:56:00;;;;;;;26.60;16.20;;;7.00;49.50;;;;;;5056009;28;20596;-41
2022/11/24 08:58:27;;;;;;;28.75;18.08;;;7.10;49.60;;;;;;5056235;28;20400;-41
2022/11/24 09:00:53;;;;;;;30.55;17.58;;;7.10;49.50;;;;;;5055270;28;20704;-41
2022/11/24 09:03:22;;;;;;;29.80;18.47;;;7.10;49.40;;;;;;5055321;28;20201;-44
2022/11/24 09:05:47;;;;;;;28.88;17.00;;;7.10;49.60;;;;;;5055495;28;20222;-40
2022/11/24 09:08:13;;;;;;;26.83;16.80;;;7.10;49.70;;;;;;5056546;28;20256;-41
2022/11/24 09:10:39;;;;;;;27.20;17.80;;;7.20;49.70;;;;;;5057516;28;20169;-42
2022/11/24 09:13:04;;;;;;;36.93;17.93;;;7.20;49.80;;;;;;5055493;28;20187;-40
2022/11/24 09:15:30;;;;;;;37.77;18.00;;;7.20;49.90;;;;;;5055061;28;20193;-41
2022/11/24 09:17:58;;;;;;;33.33;19.33;;;7.30;49.90;;;;;;5055360;28;20536;-42
2022/11/24 09:20:23;;;;;;;27.02;17.67;;;7.30;49.80;;;;;;5055759;28;20169;-41
2022/11/24 09:22:49;;;;;;;30.07;17.27;;;7.30;49.70;;;;;;5055889;28;20170;-40
2022/11/24 09:25:17;;;;;;;30.20;18.30;;;7.30;49.80;;;;;;5055734;28;20280;-40
2022/11/24 09:27:42;;;;;;;30.80;15.98;;;7.40;49.90;;;;;;5054826;28;20169;-43
2022/11/24 09:30:10;;;;;;;34.93;19.47;;;7.40;49.90;;;;;;5057281;28;20182;-42
2022/11/24 09:32:36;;;;;;;24.30;15.35;;;7.40;49.80;;;;;;5056730;28;20177;-42
2022/11/24 09:35:02;;;;;;;30.23;16.90;;;7.40;50.10;;;;;;5056396;28;20276;-42
2022/11/24 09:37:31;;;;;;;33.58;19.90;;;7.50;50.00;;;;;;5056006;28;20209;-42
2022/11/24 09:39:59;;;;;;;36.28;20.25;;;7.50;50.00;;;;;;5056111;28;20196;-44
2022/11/24 09:42:30;;;;;;;26.02;15.73;;;7.50;49.90;;;;;;5055892;28;20169;-43
2022/11/24 09:45:15;;;;;;;29.75;17.15;;;7.50;49.90;;;;;;5054648;28;20219;-39
2022/11/24 09:47:48;;;;;;;31.90;17.05;;;7.60;50.20;;;;;;5053366;28;20196;-40
2022/11/24 09:50:26;;;;;;;33.50;17.38;;;7.60;50.20;;;;;;5055551;28;20166;-40
2022/11/24 09:53:17;;;;;;;26.17;17.55;;;7.60;50.20;;;;;;5055861;28;20157;-40
2022/11/24 09:55:44;;;;;;;31.55;16.27;;;7.70;50.20;;;;;;5055075;28;20190;-40
2022/11/24 09:58:35;;;;;;;29.00;17.42;;;7.70;50.30;;;;;;5054811;28;20652;-40
2022/11/24 10:01:11;;;;;;;23.95;15.52;;;7.80;50.30;;;;;;5055564;28;20178;-42
2022/11/24 10:03:43;;;;;;;29.98;17.77;;;7.80;50.30;;;;;;5053051;28;20248;-43
2022/11/24 10:06:34;;;;;;;40.42;24.33;;;7.80;50.30;;;;;;5052705;28;20172;-38
2022/11/24 10:09:47;;;;;;;28.50;20.85;;;7.90;50.30;;;;;;5055199;28;20172;-41
2022/11/24 10:12:34;;;;;;;26.45;15.90;;;8.00;50.20;;;;;;5055232;28;20200;-40
2022/11/24 10:15:28;;;;;;;33.63;17.33;;;8.00;50.10;;;;;;5054805;28;20189;-41
2022/11/24 10:18:17;;;;;;;33.28;17.92;;;8.10;50.20;;;;;;5054049;28;20177;-43
2022/11/24 10:21:04;;;;;;;26.98;17.33;;;8.10;50.20;;;;;;5052986;28;20177;-42
2022/11/24 10:23:53;;;;;;;29.52;17.52;;;8.10;50.20;;;;;;5052825;28;20197;-42
2022/11/24 10:26:38;;;;;;;31.00;19.05;;;8.20;50.20;;;;;;5053664;28;20173;-41
2022/11/24 10:29:20;;;;;;;26.55;16.48;;;8.20;50.30;;;;;;5054565;28;20193;-42
2022/11/24 10:31:50;;;;;;;29.13;16.73;;;8.20;50.40;;;;;;5054679;28;20232;-41
2022/11/24 10:34:19;;;;;;;31.25;18.45;;;8.20;50.40;;;;;;5054813;28;20351;-41
2022/11/24 10:37:10;;;;;;;26.55;18.13;;;8.30;50.50;;;;;;5053234;28;20196;-43
2022/11/24 10:39:55;;;;;;;25.30;16.60;;;8.40;50.40;;;;;;5054386;28;20170;-43
2022/11/24 10:42:35;;;;;;;25.60;17.27;;;8.40;50.50;;;;;;5054583;28;20216;-41
2022/11/24 10:45:10;;;;;;;28.65;18.65;;;8.40;50.40;;;;;;5053890;28;20209;-42
2022/11/24 10:47:37;;;;;;;27.75;18.88;;;8.40;50.40;;;;;;5054227;28;20196;-42
2022/11/24 10:50:20;;;;;;;38.95;18.02;;;8.40;50.40;;;;;;5053691;28;20541;-42
2022/11/24 10:52:55;;;;;;;26.58;17.00;;;8.50;50.60;;;;;;5054334;28;20166;-42
2022/11/24 10:55:22;;;;;;;33.42;19.58;;;8.50;50.50;;;;;;5053035;28;20680;-41
2022/11/24 10:57:48;;;;;;;32.50;18.80;;;8.60;50.40;;;;;;5054185;28;20169;-41
2022/11/24 11:00:19;;;;;;;30.20;16.77;;;8.60;50.50;;;;;;5053122;28;20217;-43
2022/11/24 11:02:47;;;;;;;25.27;16.55;;;8.60;50.40;;;;;;5054351;28;20506;-43
2022/11/24 11:05:49;;;;;;;29.08;17.60;;;8.60;50.50;;;;;;5053375;28;20636;-42
2022/11/24 11:08:26;;;;;;;35.92;17.77;;;8.60;50.40;;;;;;5040846;28;20663;-42
2022/11/24 11:11:19;;;;;;;29.58;16.67;;;8.70;50.70;;;;;;5052265;28;20173;-41
2022/11/24 11:13:55;;;;;;;27.95;17.02;;;8.70;50.60;;;;;;5053223;28;20166;-42
2022/11/24 11:16:33;;;;;;;25.35;15.73;;;8.70;50.80;;;;;;5056918;28;20478;-42
2022/11/24 11:19:02;;;;;;;35.03;21.90;;;8.80;50.80;;;;;;5058446;28;20637;-43
2022/11/24 11:21:37;;;;;;;26.60;15.88;;;8.80;50.80;;;;;;5058107;28;20187;-42
2022/11/24 11:24:15;;;;;;;36.50;27.20;;;8.90;51.00;;;;;;5058505;28;20546;-42
2022/11/24 11:26:42;;;;;;;34.85;23.92;;;9.10;51.10;;;;;;5058023;28;20172;-43
2022/11/24 11:29:09;;;;;;;28.02;17.40;;;9.20;51.30;;;;;;5057819;28;20383;-42
2022/11/24 11:31:36;;;;;;;29.90;19.48;;;9.40;51.50;;;;;;5058884;28;20261;-43
2022/11/24 11:34:14;;;;;;;29.83;17.77;;;9.50;51.40;;;;;;5057500;28;20196;-43
2022/11/24 11:36:49;;;;;;;32.60;19.92;;;9.60;51.20;;;;;;5057810;28;20176;-44
2022/11/24 11:39:34;;;;;;;34.03;18.13;;;9.70;51.20;;;;;;5057535;28;20213;-44
2022/11/24 11:42:23;;;;;;;33.17;19.75;;;9.80;51.30;;;;;;5057152;28;20279;-42
2022/11/24 11:45:11;;;;;;;31.10;18.65;;;9.70;51.20;;;;;;5056525;28;20704;-43
2022/11/24 11:47:39;;;;;;;35.38;19.98;;;9.70;51.20;;;;;;5056570;28;20236;-42
2022/11/24 11:50:18;;;;;;;31.65;20.25;;;9.70;51.40;;;;;;5056468;28;20175;-43
2022/11/24 11:53:15;;;;;;;34.08;19.23;;;9.70;51.40;;;;;;5056247;28;20199;-43
2022/11/24 11:56:04;;;;;;;29.92;18.98;;;9.80;51.30;;;;;;5054749;28;20185;-43
2022/11/24 11:58:57;;;;;;;26.85;17.45;;;9.70;51.40;;;;;;5056680;28;20567;-43
2022/11/24 12:01:48;;;;;;;26.55;17.08;;;9.70;51.50;;;;;;5056045;28;20193;-43
2022/11/24 12:04:44;;;;;;;27.45;17.30;;;9.70;51.50;;;;;;5056792;28;20280;-40
2022/11/24 12:07:34;;;;;;;29.00;17.75;;;9.70;51.70;;;;;;5054933;28;20171;-40
2022/11/24 12:10:29;;;;;;;29.90;17.05;;;9.80;51.70;;;;;;5055147;28;20173;-41
2022/11/24 12:13:07;;;;;;;29.63;17.23;;;9.80;51.70;;;;;;5054896;28;20191;-40
2022/11/24 12:15:48;;;;;;;32.50;18.02;;;9.90;51.90;;;;;;5054265;28;20189;-43
2022/11/24 12:18:37;;;;;;;25.90;16.55;;;9.90;51.80;;;;;;5054907;28;20185;-41
2022/11/24 12:21:32;;;;;;;37.05;18.58;;;10.00;51.80;;;;;;5055941;28;20515;-39
2022/11/24 12:24:15;;;;;;;27.92;18.75;;;10.00;51.80;;;;;;5049377;28;20774;-41
2022/11/24 12:26:47;;;;;;;26.08;16.30;;;10.10;51.90;;;;;;5053084;28;20184;-40
2022/11/24 12:29:57;;;;;;;29.48;15.88;;;10.10;51.90;;;;;;5054321;28;20208;-41
2022/11/24 12:32:37;;;;;;;24.40;14.30;;;10.10;51.70;;;;;;5055072;28;20172;-41
2022/11/24 12:35:32;;;;;;;24.17;15.55;;;10.20;51.70;;;;;;5056098;28;20204;-40
2022/11/24 12:38:33;;;;;;;21.92;15.27;;;10.20;51.70;;;;;;5024088;28;20211;-40
2022/11/24 12:41:17;;;;;;;23.13;15.00;;;10.30;51.70;;;;;;5056246;28;20168;-41
2022/11/24 12:43:51;;;;;;;21.90;14.48;;;10.30;51.70;;;;;;5054486;28;20201;-41
2022/11/24 12:46:40;;;;;;;27.05;14.32;;;10.30;51.70;;;;;;5056196;28;20252;-40
2022/11/24 12:49:14;;;;;;;31.23;16.45;;;10.40;51.70;;;;;;5055718;28;20172;-41
2022/11/24 12:51:47;;;;;;;24.98;17.63;;;10.40;51.70;;;;;;5055727;28;20569;-41
2022/11/24 12:54:17;;;;;;;24.65;15.68;;;10.40;51.70;;;;;;5055643;28;20200;-41
2022/11/24 12:57:12;;;;;;;23.35;14.40;;;10.40;51.70;;;;;;5054856;28;20172;-41